Time;durP1;ratioP1;P1;durP2;ratioP2;P2;SDS_P1;SDS_P2;PMS_P1;PMS_P2;Temp;Humidity;BMP_temperature;BMP_pressure;BME280_temperature;BME280_humidity;BME280_pressure;Samples;Min_cycle;Max_cycle;Signal;HPM_P1;HPM_P2
2023/09/25 00:01:33;;;;;;;0.10;0.10;;;;;;;15.11;62.86;102154.50;5142687;27;20041;-77
2023/09/25 00:04:00;;;;;;;0.08;0.08;;;;;;;15.09;62.76;102151.00;5148140;27;20019;-77
2023/09/25 00:06:27;;;;;;;0.10;0.10;;;;;;;15.08;62.78;102154.59;5144638;27;20071;-78
2023/09/25 00:08:53;;;;;;;0.10;0.10;;;;;;;15.08;62.85;102167.03;5134886;27;20031;-78
2023/09/25 00:11:19;;;;;;;0.10;0.10;;;;;;;15.04;62.74;102166.19;5135661;27;20039;-79
2023/09/25 00:13:46;;;;;;;0.10;0.10;;;;;;;14.98;63.21;102161.00;5132994;27;20019;-79
2023/09/25 00:16:14;;;;;;;0.10;0.10;;;;;;;14.96;63.16;102166.34;5134035;27;20373;-79
2023/09/25 00:18:41;;;;;;;0.20;0.20;;;;;;;14.93;63.75;102166.41;5136391;27;20038;-78
2023/09/25 00:21:07;;;;;;;0.10;0.10;;;;;;;14.94;63.21;102164.59;5139264;27;20045;-78
2023/09/25 00:23:33;;;;;;;0.10;0.10;;;;;;;14.90;63.62;102163.78;5134087;27;20019;-79
2023/09/25 00:26:04;;;;;;;0.00;0.00;;;;;;;14.92;63.48;102169.09;5132682;27;20050;-79
2023/09/25 00:28:31;;;;;;;0.00;0.00;;;;;;;14.89;63.29;102164.69;5139187;27;20029;-79
2023/09/25 00:30:57;;;;;;;0.10;0.10;;;;;;;14.90;63.33;102169.13;5140444;27;20164;-79
2023/09/25 00:33:23;;;;;;;0.10;0.10;;;;;;;14.88;63.93;102166.47;5139664;27;20393;-79
2023/09/25 00:35:49;;;;;;;0.20;0.20;;;;;;;14.85;63.61;102165.66;5141854;27;20035;-79
2023/09/25 00:38:15;;;;;;;0.00;0.00;;;;;;;14.84;63.44;102164.78;5142238;27;20034;-79
2023/09/25 00:40:42;;;;;;;0.32;0.32;;;;;;;14.81;63.49;102159.47;5142977;27;20029;-79
2023/09/25 00:43:13;;;;;;;0.10;0.10;;;;;;;14.81;63.74;102170.16;5143038;27;20027;-79
2023/09/25 00:45:41;;;;;;;0.10;0.10;;;;;;;14.78;63.68;102164.88;5142229;27;20090;-79
2023/09/25 00:48:16;;;;;;;0.00;0.00;;;;;;;14.78;63.67;102161.31;5124756;27;20051;-79
2023/09/25 00:50:43;;;;;;;0.10;0.10;;;;;;;14.76;63.60;102158.69;5142182;27;20023;-79
2023/09/25 00:53:09;;;;;;;0.10;0.10;;;;;;;14.72;63.75;102167.66;5141922;27;20034;-78
2023/09/25 00:55:35;;;;;;;0.10;0.10;;;;;;;14.68;63.88;102165.94;5142631;28;20453;-79
2023/09/25 00:58:02;;;;;;;0.57;0.57;;;;;;;14.66;63.99;102154.41;5141474;27;20031;-79
2023/09/25 01:00:28;;;;;;;0.10;0.10;;;;;;;14.65;63.64;102152.63;5142697;28;20042;-79
2023/09/25 01:02:54;;;;;;;0.10;0.10;;;;;;;14.60;63.88;102159.81;5143115;27;20024;-79
2023/09/25 01:05:20;;;;;;;0.10;0.10;;;;;;;14.55;64.72;102155.44;5144213;28;20023;-79
2023/09/25 01:07:46;;;;;;;0.10;0.10;;;;;;;14.55;64.18;102160.75;5141639;27;20063;-80
2023/09/25 01:10:17;;;;;;;0.10;0.10;;;;;;;14.56;64.34;102157.16;5141016;28;20110;-79
2023/09/25 01:12:44;;;;;;;0.10;0.10;;;;;;;14.51;64.34;102148.34;5139970;27;20038;-79
2023/09/25 01:15:12;;;;;;;0.10;0.10;;;;;;;14.49;64.51;102149.28;5141058;28;20065;-79
2023/09/25 01:17:38;;;;;;;0.10;0.10;;;;;;;14.46;64.45;102152.88;5141234;28;20028;-80
2023/09/25 01:20:22;;;;;;;0.10;0.10;;;;;;;14.46;64.49;102149.34;5140314;28;20031;-79
2023/09/25 01:22:49;;;;;;;0.10;0.10;;;;;;;14.43;64.95;102149.38;5136877;27;20063;-79
2023/09/25 01:25:17;;;;;;;0.10;0.10;;;;;;;14.38;64.86;102154.78;5138822;27;20120;-79
2023/09/25 01:27:44;;;;;;;0.10;0.10;;;;;;;14.39;64.95;102145.88;5138185;28;20030;-79
2023/09/25 01:30:13;;;;;;;0.10;0.10;;;;;;;14.37;64.66;102148.56;5138247;28;20020;-79
2023/09/25 01:32:42;;;;;;;0.00;0.00;;;;;;;14.34;65.31;102147.75;5138855;27;20019;-79
2023/09/25 01:35:13;;;;;;;1.10;1.10;;;;;;;14.31;65.40;102147.81;5137530;27;20023;-79
2023/09/25 01:37:41;;;;;;;0.10;0.10;;;;;;;14.31;64.99;102147.81;5132124;27;20516;-79
2023/09/25 01:40:15;;;;;;;0.10;0.10;;;;;;;14.29;65.47;102138.94;5137135;28;20031;-79
2023/09/25 01:42:42;;;;;;;0.03;0.03;;;;;;;14.24;65.63;102142.56;5136885;27;20035;-79
2023/09/25 01:45:10;;;;;;;0.10;0.10;;;;;;;14.27;65.26;102132.72;5133470;27;20442;-78
2023/09/25 01:47:37;;;;;;;0.10;0.10;;;;;;;14.24;65.59;102131.91;5131859;27;20042;-78
2023/09/25 01:50:03;;;;;;;0.08;0.08;;;;;;;14.21;65.64;102137.25;5137753;27;20023;-78
2023/09/25 01:52:30;;;;;;;0.10;0.10;;;;;;;14.21;65.51;102137.25;5134972;28;20051;-79
2023/09/25 01:54:57;;;;;;;0.10;0.10;;;;;;;14.21;65.67;102134.59;5134820;28;20031;-79
2023/09/25 01:57:23;;;;;;;0.20;0.20;;;;;;;14.21;65.71;102131.06;5136019;27;20039;-79
2023/09/25 01:59:49;;;;;;;0.30;0.30;;;;;;;14.24;65.63;102131.00;5120997;28;20033;-78
2023/09/25 02:02:15;;;;;;;0.10;0.10;;;;;;;14.19;66.22;102127.53;5136855;27;20038;-78
2023/09/25 02:04:41;;;;;;;0.03;0.03;;;;;;;14.20;66.00;102127.50;5137908;27;20023;-78
2023/09/25 02:07:07;;;;;;;0.10;0.10;;;;;;;14.20;65.95;102132.81;5138515;27;20152;-78
2023/09/25 02:09:33;;;;;;;0.10;0.10;;;;;;;14.24;65.94;102120.34;5140486;27;20388;-79
2023/09/25 02:12:00;;;;;;;0.10;0.10;;;;;;;14.26;65.93;102128.34;5141490;27;20050;-79
2023/09/25 02:14:26;;;;;;;0.10;0.10;;;;;;;14.27;65.51;102130.06;5139643;27;20050;-79
2023/09/25 02:16:52;;;;;;;0.10;0.10;;;;;;;14.27;65.63;102130.06;5139053;27;20035;-79
2023/09/25 02:19:18;;;;;;;0.10;0.10;;;;;;;14.28;65.63;102132.72;5140823;27;20031;-79
2023/09/25 02:21:44;;;;;;;0.10;0.10;;;;;;;14.30;65.61;102127.38;5147689;27;20035;-78
2023/09/25 02:24:10;;;;;;;0.10;0.10;;;;;;;14.29;65.85;102120.28;5134870;27;20035;-78
2023/09/25 02:26:37;;;;;;;0.10;0.10;;;;;;;14.28;65.53;102110.50;5139512;27;20028;-79
2023/09/25 02:29:03;;;;;;;0.30;0.30;;;;;;;14.28;65.57;102115.84;5139197;27;20103;-78
2023/09/25 02:31:29;;;;;;;0.10;0.10;;;;;;;14.24;65.75;102110.56;5139567;27;20080;-78
2023/09/25 02:33:55;;;;;;;0.70;0.70;;;;;;;14.27;65.46;102108.75;5136831;27;20023;-79
2023/09/25 02:36:21;;;;;;;0.10;0.10;;;;;;;14.26;65.65;102096.34;5138571;27;20076;-79
2023/09/25 02:38:49;;;;;;;0.10;0.10;;;;;;;14.18;65.91;102094.66;5138813;27;20114;-79
2023/09/25 02:41:15;;;;;;;0.10;0.10;;;;;;;14.21;65.74;102093.75;5139706;27;20491;-79
2023/09/25 02:43:41;;;;;;;0.08;0.08;;;;;;;14.19;65.80;102091.09;5138820;27;20075;-79
2023/09/25 02:46:07;;;;;;;0.10;0.10;;;;;;;14.17;65.99;102092.03;5136273;27;20038;-79
2023/09/25 02:48:33;;;;;;;0.20;0.20;;;;;;;14.12;66.00;102100.09;5126998;27;20023;-78
2023/09/25 02:50:59;;;;;;;0.10;0.10;;;;;;;14.16;65.99;102098.25;5138004;27;20027;-79
2023/09/25 02:53:25;;;;;;;0.47;0.47;;;;;;;14.20;65.60;102098.16;5128634;27;20035;-79
2023/09/25 02:55:51;;;;;;;0.32;0.32;;;;;;;14.15;66.02;102100.03;5138625;27;20032;-79
2023/09/25 02:58:17;;;;;;;0.20;0.20;;;;;;;14.18;65.75;102102.66;5138423;27;20033;-79
2023/09/25 03:00:45;;;;;;;0.10;0.10;;;;;;;14.20;65.71;102092.84;5139813;27;20023;-79
2023/09/25 03:03:11;;;;;;;2.75;0.63;;;;;;;14.21;65.64;102093.75;5139902;27;20023;-79
2023/09/25 03:05:37;;;;;;;0.10;0.10;;;;;;;14.22;65.56;102099.03;5139190;27;20052;-79
2023/09/25 03:08:04;;;;;;;0.10;0.10;;;;;;;14.22;65.54;102091.03;5138009;27;20038;-79
2023/09/25 03:10:30;;;;;;;0.10;0.10;;;;;;;14.24;65.58;102099.91;5139520;27;20034;-79
2023/09/25 03:12:56;;;;;;;0.20;0.20;;;;;;;14.24;65.57;102091.91;5138329;27;20023;-79
2023/09/25 03:15:24;;;;;;;0.50;0.50;;;;;;;14.28;65.62;102105.19;5139711;27;20060;-78
2023/09/25 03:17:50;;;;;;;0.10;0.10;;;;;;;14.29;65.58;102104.28;5138538;27;20079;-78
2023/09/25 03:20:16;;;;;;;0.10;0.10;;;;;;;14.29;65.38;102098.94;5138803;27;20026;-79
2023/09/25 03:22:44;;;;;;;0.10;0.10;;;;;;;14.27;65.51;102103.41;5139650;27;20480;-79
2023/09/25 03:25:11;;;;;;;0.30;0.30;;;;;;;14.27;65.56;102111.41;5139512;27;20019;-79
2023/09/25 03:27:38;;;;;;;0.10;0.10;;;;;;;14.30;65.48;102108.72;5137935;27;20019;-79
2023/09/25 03:30:05;;;;;;;0.20;0.20;;;;;;;14.31;65.23;102107.81;5139992;27;20046;-79
2023/09/25 03:32:32;;;;;;;0.55;0.55;;;;;;;14.26;65.35;102110.53;5139106;27;20027;-79
2023/09/25 03:34:58;;;;;;;0.10;0.10;;;;;;;14.29;65.27;102101.59;5139920;27;20568;-79
2023/09/25 03:37:24;;;;;;;0.10;0.10;;;;;;;14.31;65.17;102105.16;5139313;27;20024;-79
2023/09/25 03:39:50;;;;;;;0.05;0.05;;;;;;;14.28;65.32;102099.84;5140583;27;20084;-79
2023/09/25 03:42:16;;;;;;;0.10;0.10;;;;;;;14.29;65.33;102101.59;5139388;27;20074;-79
2023/09/25 03:44:42;;;;;;;0.20;0.20;;;;;;;14.28;65.35;102095.41;5139754;27;20027;-79
2023/09/25 03:47:08;;;;;;;0.10;0.10;;;;;;;14.29;65.08;102096.28;5138942;27;20023;-79
2023/09/25 03:49:34;;;;;;;0.10;0.10;;;;;;;14.30;65.12;102100.72;5140032;27;20083;-79
2023/09/25 03:52:00;;;;;;;0.10;0.10;;;;;;;14.21;65.56;102107.94;5138168;27;20035;-79
2023/09/25 03:54:26;;;;;;;0.10;0.10;;;;;;;14.26;65.39;102109.66;5138744;27;20102;-79
2023/09/25 03:56:52;;;;;;;0.10;0.10;;;;;;;14.27;65.33;102108.75;5137778;27;20035;-78
2023/09/25 03:59:18;;;;;;;0.45;0.45;;;;;;;14.29;65.33;102112.28;5137053;27;20027;-79
2023/09/25 04:01:44;;;;;;;0.10;0.10;;;;;;;14.21;65.51;102113.25;5136872;27;20076;-78
2023/09/25 04:04:11;;;;;;;0.15;0.15;;;;;;;14.22;65.60;102115.03;5119525;27;20053;-79
2023/09/25 04:06:37;;;;;;;0.43;0.43;;;;;;;14.26;65.33;102107.88;5137458;27;20455;-79
2023/09/25 04:09:06;;;;;;;0.10;0.10;;;;;;;14.24;65.27;102113.22;5137904;27;20058;-79
2023/09/25 04:11:33;;;;;;;0.10;0.10;;;;;;;14.23;65.34;102124.78;5136263;27;20034;-79
2023/09/25 04:14:00;;;;;;;0.10;0.10;;;;;;;14.26;65.26;102123.88;5134020;27;20031;-79
2023/09/25 04:16:28;;;;;;;0.10;0.10;;;;;;;14.23;65.44;102122.13;5135451;27;20035;-78
2023/09/25 04:18:54;;;;;;;0.10;0.10;;;;;;;14.25;65.25;102119.44;5137305;27;20046;-79
2023/09/25 04:21:21;;;;;;;0.10;0.10;;;;;;;14.28;65.20;102127.41;5137707;27;20132;-78
2023/09/25 04:23:48;;;;;;;0.00;0.00;;;;;;;14.23;65.33;102123.91;5135232;27;20098;-78
2023/09/25 04:26:14;;;;;;;0.10;0.10;;;;;;;14.26;65.14;102144.31;5136420;27;20403;-78
2023/09/25 04:28:40;;;;;;;0.90;0.90;;;;;;;14.27;64.82;102140.72;5138849;27;20027;-78
2023/09/25 04:31:06;;;;;;;0.10;0.10;;;;;;;14.19;65.19;102141.75;5137716;27;20462;-79
2023/09/25 04:33:33;;;;;;;0.10;0.10;;;;;;;14.28;65.05;102126.50;5138507;27;20038;-79
2023/09/25 04:36:01;;;;;;;0.00;0.00;;;;;;;14.27;64.88;102136.28;5137911;27;20042;-79
2023/09/25 04:38:27;;;;;;;0.10;0.10;;;;;;;14.25;65.18;102132.75;5137882;27;20440;-79
2023/09/25 04:40:54;;;;;;;0.10;0.10;;;;;;;14.24;65.12;102136.31;5134419;27;20514;-78
2023/09/25 04:43:21;;;;;;;0.10;0.10;;;;;;;14.24;64.99;102131.91;5135943;27;20038;-79
2023/09/25 04:45:51;;;;;;;0.00;0.00;;;;;;;14.28;65.03;102137.16;5136927;27;20046;-79
2023/09/25 04:48:18;;;;;;;0.10;0.10;;;;;;;14.24;64.98;102142.56;5138699;27;20042;-79
2023/09/25 04:50:44;;;;;;;0.10;0.10;;;;;;;14.30;64.79;102146.03;5137803;27;20055;-79
2023/09/25 04:53:10;;;;;;;0.10;0.10;;;;;;;14.29;64.99;102138.94;5138091;27;20403;-79
2023/09/25 04:55:39;;;;;;;0.10;0.10;;;;;;;14.30;64.95;102140.69;5133869;27;20084;-78
2023/09/25 04:58:05;;;;;;;0.10;0.10;;;;;;;14.29;64.94;102139.81;5137939;28;20586;-79
2023/09/25 05:00:32;;;;;;;0.00;0.00;;;;;;;14.28;65.02;102142.50;5136354;28;20473;-78
2023/09/25 05:02:59;;;;;;;0.10;0.10;;;;;;;14.26;64.99;102149.66;5137798;27;20556;-78
2023/09/25 05:05:26;;;;;;;0.10;0.10;;;;;;;14.19;65.38;102141.75;5139169;27;20027;-80
2023/09/25 05:07:55;;;;;;;0.00;0.00;;;;;;;14.19;65.51;102152.41;5138630;28;20106;-79
2023/09/25 05:10:24;;;;;;;0.40;0.40;;;;;;;14.19;65.40;102143.50;5135061;27;20030;-79
2023/09/25 05:12:51;;;;;;;0.00;0.00;;;;;;;14.17;65.46;102148.88;5137210;27;20019;-79
2023/09/25 05:15:18;;;;;;;0.08;0.08;;;;;;;14.13;65.56;102147.16;5137146;28;20023;-79
2023/09/25 05:17:45;;;;;;;0.10;0.10;;;;;;;14.16;65.53;102155.09;5137935;28;20024;-79
2023/09/25 05:20:16;;;;;;;0.10;0.10;;;;;;;14.13;65.60;102152.50;5131031;28;20062;-79
2023/09/25 05:22:45;;;;;;;0.10;0.10;;;;;;;14.10;65.85;102154.31;5132621;27;20476;-79
2023/09/25 05:25:12;;;;;;;0.10;0.10;;;;;;;14.10;65.75;102155.19;5131252;28;20134;-78
2023/09/25 05:27:41;;;;;;;0.10;0.10;;;;;;;14.08;65.83;102148.97;5136962;27;20388;-79
2023/09/25 05:30:10;;;;;;;0.00;0.00;;;;;;;14.11;65.78;102151.63;5135625;27;20034;-78
2023/09/25 05:32:38;;;;;;;0.05;0.05;;;;;;;14.12;65.74;102155.16;5134713;27;20059;-78
2023/09/25 05:35:04;;;;;;;0.30;0.30;;;;;;;14.11;65.81;102156.94;5133522;27;20035;-77
2023/09/25 05:37:31;;;;;;;0.10;0.10;;;;;;;14.11;65.64;102167.63;5136964;27;20110;-79
2023/09/25 05:39:57;;;;;;;0.10;0.10;;;;;;;14.10;65.66;102160.50;5139700;27;20564;-78
2023/09/25 05:42:23;;;;;;;0.13;0.13;;;;;;;14.03;65.96;102159.72;5137627;27;20163;-78
2023/09/25 05:44:50;;;;;;;0.10;0.10;;;;;;;14.08;65.55;102167.63;5137143;27;20019;-78
2023/09/25 05:47:17;;;;;;;0.15;0.15;;;;;;;14.10;65.77;102165.84;5134377;27;20023;-78
2023/09/25 05:49:43;;;;;;;0.10;0.10;;;;;;;14.10;65.64;102165.84;5133849;27;20035;-77
2023/09/25 05:52:09;;;;;;;0.10;0.10;;;;;;;14.11;65.56;102170.28;5125597;27;20047;-76
2023/09/25 05:54:35;;;;;;;0.10;0.10;;;;;;;14.17;65.59;102153.34;5133312;27;20106;-77
2023/09/25 05:57:01;;;;;;;0.10;0.10;;;;;;;14.19;65.47;102165.75;5127210;27;20403;-76
2023/09/25 05:59:28;;;;;;;0.13;0.13;;;;;;;14.15;65.66;102168.47;5134563;27;20029;-78
2023/09/25 06:01:54;;;;;;;0.00;0.00;;;;;;;14.21;65.38;102163.91;5133898;27;20154;-77
2023/09/25 06:04:21;;;;;;;0.10;0.10;;;;;;;14.23;65.40;102167.44;5141269;27;20027;-77
2023/09/25 06:06:47;;;;;;;0.10;0.10;;;;;;;14.30;65.25;102167.34;5137260;27;20041;-80
2023/09/25 06:09:16;;;;;;;0.10;0.10;;;;;;;14.29;65.32;102160.25;5135843;27;20310;-79
2023/09/25 06:11:42;;;;;;;0.10;0.10;;;;;;;14.34;65.15;102172.63;5132339;27;20087;-79
2023/09/25 06:14:09;;;;;;;0.30;0.30;;;;;;;14.35;65.15;102179.69;5137011;27;20030;-79
2023/09/25 06:16:36;;;;;;;0.10;0.10;;;;;;;14.43;65.12;102181.38;5127820;27;20547;-79
2023/09/25 06:19:03;;;;;;;0.10;0.10;;;;;;;14.47;64.93;102177.78;5130867;27;20034;-79
2023/09/25 06:21:30;;;;;;;0.52;0.50;;;;;;;14.51;64.92;102179.50;5125008;27;20047;-79
2023/09/25 06:23:57;;;;;;;0.00;0.00;;;;;;;14.51;64.91;102177.69;5128611;27;20107;-79
2023/09/25 06:26:27;;;;;;;0.03;0.03;;;;;;;14.55;64.56;102179.44;5135895;27;20051;-79
2023/09/25 06:28:54;;;;;;;0.20;0.20;;;;;;;14.62;64.51;102174.00;5131637;27;20037;-79
2023/09/25 06:31:21;;;;;;;0.10;0.10;;;;;;;14.67;64.29;102166.84;5126739;27;20051;-79
2023/09/25 06:33:47;;;;;;;0.08;0.08;;;;;;;14.74;64.24;102172.94;5135505;27;20086;-79
2023/09/25 06:36:13;;;;;;;0.10;0.10;;;;;;;14.79;64.31;102169.31;5131772;27;20080;-79
2023/09/25 06:38:40;;;;;;;0.85;0.85;;;;;;;14.77;64.13;102176.44;5132316;27;20088;-79
2023/09/25 06:41:06;;;;;;;0.10;0.10;;;;;;;14.86;64.10;102170.94;5137831;27;20088;-79
2023/09/25 06:43:32;;;;;;;0.17;0.17;;;;;;;14.91;63.99;102175.34;5138083;27;20416;-78
2023/09/25 06:45:58;;;;;;;0.73;0.73;;;;;;;14.96;64.09;102176.16;5137558;27;20258;-79
2023/09/25 06:48:24;;;;;;;0.15;0.15;;;;;;;15.03;64.09;102180.47;5136003;27;20034;-79
2023/09/25 06:50:50;;;;;;;0.10;0.10;;;;;;;15.09;63.80;102175.03;5138030;27;20035;-79
2023/09/25 06:53:16;;;;;;;0.55;0.55;;;;;;;15.14;63.97;102183.84;5139426;27;20562;-78
2023/09/25 06:55:44;;;;;;;8.68;1.35;;;;;;;15.20;63.64;102181.06;5138668;27;20051;-79
2023/09/25 06:58:10;;;;;;;0.10;0.10;;;;;;;15.23;63.50;102181.91;5141731;27;20110;-78
2023/09/25 07:00:36;;;;;;;0.10;0.10;;;;;;;15.32;63.43;102193.28;5145497;27;20031;-78
2023/09/25 07:03:03;;;;;;;0.47;0.47;;;;;;;15.33;63.26;102194.19;5144683;27;20035;-78
2023/09/25 07:05:29;;;;;;;0.43;0.43;;;;;;;15.39;63.32;102190.50;5143539;27;20027;-78
2023/09/25 07:07:56;;;;;;;0.22;0.22;;;;;;;15.47;63.40;102197.47;5138714;27;20030;-79
2023/09/25 07:10:22;;;;;;;0.10;0.10;;;;;;;15.56;63.02;102199.06;5139612;27;20019;-79
2023/09/25 07:12:48;;;;;;;0.10;0.10;;;;;;;15.59;63.12;102203.47;5139105;27;20091;-79
2023/09/25 07:15:14;;;;;;;0.05;0.05;;;;;;;15.66;62.83;102202.47;5139034;27;20031;-79
2023/09/25 07:17:41;;;;;;;0.22;0.20;;;;;;;15.70;62.52;102204.16;5138700;27;20031;-78
2023/09/25 07:20:08;;;;;;;0.10;0.10;;;;;;;15.75;62.61;102204.97;5138483;27;20038;-79
2023/09/25 07:22:34;;;;;;;0.20;0.20;;;;;;;15.76;62.61;102201.34;5138779;27;20027;-79
2023/09/25 07:25:00;;;;;;;0.30;0.30;;;;;;;15.88;62.79;102199.41;5138008;27;20059;-79
2023/09/25 07:27:28;;;;;;;0.05;0.05;;;;;;;15.93;62.44;102198.38;5138071;27;20039;-79
2023/09/25 07:29:54;;;;;;;0.10;0.10;;;;;;;15.98;62.57;102176.91;5138022;27;20035;-79
2023/09/25 07:32:20;;;;;;;0.00;0.00;;;;;;;16.03;62.59;102183.03;5137668;27;20434;-79
2023/09/25 07:34:46;;;;;;;0.90;0.85;;;;;;;16.07;62.45;102171.34;5137526;27;20023;-79
2023/09/25 07:37:13;;;;;;;0.15;0.15;;;;;;;16.14;62.32;102178.31;5138457;27;20039;-80
2023/09/25 07:39:40;;;;;;;0.10;0.10;;;;;;;16.12;61.90;102180.16;5137964;27;20528;-80
2023/09/25 07:42:07;;;;;;;0.10;0.10;;;;;;;16.22;61.74;102174.63;5137843;27;20039;-79
2023/09/25 07:44:34;;;;;;;0.10;0.10;;;;;;;16.23;61.63;102173.72;5138014;27;20030;-79
2023/09/25 07:47:06;;;;;;;0.05;0.05;;;;;;;16.28;62.14;102175.34;5138386;27;20164;-79
2023/09/25 07:49:38;;;;;;;0.10;0.10;;;;;;;16.24;61.40;102175.47;5138607;27;20030;-79
2023/09/25 07:52:15;;;;;;;0.15;0.15;;;;;;;16.27;61.42;102172.72;5139749;27;20396;-79
2023/09/25 07:54:44;;;;;;;0.10;0.10;;;;;;;16.33;60.88;102167.22;5137296;27;20110;-79
2023/09/25 07:57:14;;;;;;;0.10;0.10;;;;;;;16.36;60.64;102160.91;5137117;27;20062;-79
2023/09/25 07:59:40;;;;;;;0.10;0.10;;;;;;;16.45;61.10;102158.03;5137605;27;20023;-79
2023/09/25 08:02:07;;;;;;;0.10;0.10;;;;;;;16.50;61.06;102167.72;5137301;27;20031;-79
2023/09/25 08:04:35;;;;;;;0.22;0.22;;;;;;;16.57;61.10;102163.06;5137739;27;20072;-79
2023/09/25 08:07:02;;;;;;;0.10;0.10;;;;;;;16.62;60.89;102173.69;5137471;27;20027;-79
2023/09/25 08:09:29;;;;;;;0.10;0.10;;;;;;;16.64;60.74;102172.72;5136790;27;20090;-79
2023/09/25 08:11:55;;;;;;;0.10;0.10;;;;;;;16.74;60.57;102168.03;5133408;27;20031;-79
2023/09/25 08:14:22;;;;;;;0.10;0.10;;;;;;;16.85;60.91;102164.19;5137685;27;20023;-79
2023/09/25 08:16:49;;;;;;;0.43;0.43;;;;;;;16.89;60.72;102165.91;5126788;27;20059;-79
2023/09/25 08:19:17;;;;;;;0.03;0.03;;;;;;;17.03;60.61;102163.75;5122922;27;20088;-79
2023/09/25 08:21:44;;;;;;;0.10;0.10;;;;;;;17.13;59.91;102161.72;5138331;27;20023;-79
2023/09/25 08:24:10;;;;;;;0.00;0.00;;;;;;;17.17;59.65;102160.75;5136109;27;20083;-79
2023/09/25 08:26:38;;;;;;;0.10;0.10;;;;;;;17.31;59.44;102163.03;5134541;27;20058;-78
2023/09/25 08:29:05;;;;;;;0.08;0.08;;;;;;;17.38;59.23;102164.59;5134948;27;20035;-79
2023/09/25 08:31:32;;;;;;;0.80;0.80;;;;;;;17.50;59.13;102166.09;5134698;27;20438;-80
2023/09/25 08:33:58;;;;;;;0.10;0.10;;;;;;;17.58;58.87;102160.50;5128330;27;20054;-79
2023/09/25 08:36:25;;;;;;;0.20;0.20;;;;;;;17.66;59.17;102174.56;5123559;27;20100;-79
2023/09/25 08:38:51;;;;;;;0.10;0.10;;;;;;;17.81;59.14;102177.72;5138017;27;20023;-78
2023/09/25 08:41:19;;;;;;;0.10;0.10;;;;;;;17.85;58.69;102179.41;5136205;27;20035;-79
2023/09/25 08:43:47;;;;;;;0.10;0.10;;;;;;;17.89;58.53;102170.34;5129937;27;20047;-80
2023/09/25 08:46:13;;;;;;;0.00;0.00;;;;;;;17.93;57.83;102172.00;5124449;27;20058;-78
2023/09/25 08:48:40;;;;;;;0.00;0.00;;;;;;;18.04;57.84;102179.75;5132199;27;20039;-77
2023/09/25 08:51:06;;;;;;;0.10;0.10;;;;;;;18.09;57.65;102184.06;5132351;27;20027;-77
2023/09/25 08:53:33;;;;;;;0.10;0.10;;;;;;;18.18;57.81;102187.38;5134870;27;20034;-78
2023/09/25 08:55:59;;;;;;;0.10;0.10;;;;;;;18.24;57.74;102197.94;5122642;27;20039;-78
2023/09/25 08:58:26;;;;;;;0.10;0.10;;;;;;;18.29;57.21;102200.47;5138247;27;20027;-79
2023/09/25 09:00:53;;;;;;;0.10;0.10;;;;;;;18.35;57.02;102192.25;5135876;28;20496;-79
2023/09/25 09:03:20;;;;;;;0.00;0.00;;;;;;;18.44;57.26;102199.97;5137054;27;20168;-78
2023/09/25 09:05:47;;;;;;;0.10;0.10;;;;;;;18.53;57.09;102206.88;5138385;28;20023;-78
2023/09/25 09:08:16;;;;;;;0.00;0.00;;;;;;;18.65;57.23;102195.75;5138202;27;20023;-79
2023/09/25 09:10:43;;;;;;;0.00;0.00;;;;;;;18.63;56.28;102191.34;5140056;27;20027;-78
2023/09/25 09:13:10;;;;;;;0.80;0.75;;;;;;;18.75;56.40;102193.63;5141917;27;20035;-80
2023/09/25 09:15:38;;;;;;;0.10;0.10;;;;;;;18.85;56.77;102189.72;5138397;27;20111;-78
2023/09/25 09:18:22;;;;;;;0.08;0.08;;;;;;;19.03;56.55;102193.63;5140404;27;20080;-77
2023/09/25 09:20:49;;;;;;;0.00;0.00;;;;;;;19.01;55.83;102194.63;5141881;27;20024;-77
2023/09/25 09:23:16;;;;;;;0.10;0.10;;;;;;;19.15;56.49;102186.06;5142648;27;20031;-79
2023/09/25 09:25:46;;;;;;;0.10;0.10;;;;;;;19.26;56.00;102197.31;5138611;27;20039;-80
2023/09/25 09:28:13;;;;;;;0.00;0.00;;;;;;;19.31;55.52;102197.16;5142262;27;20027;-79
2023/09/25 09:30:41;;;;;;;13.15;1.30;;;;;;;19.39;55.68;102190.59;5145787;27;20103;-80
2023/09/25 09:33:09;;;;;;;0.00;0.00;;;;;;;19.39;54.28;102198.66;5142940;27;20058;-80
2023/09/25 09:35:35;;;;;;;0.10;0.10;;;;;;;19.44;54.08;102202.97;5140095;27;20408;-79
2023/09/25 09:38:02;;;;;;;0.10;0.10;;;;;;;19.50;54.80;102195.59;5142228;27;20027;-78
2023/09/25 09:40:30;;;;;;;0.75;0.75;;;;;;;19.54;53.93;102196.34;5143381;27;20034;-78
2023/09/25 09:42:57;;;;;;;0.10;0.10;;;;;;;19.60;53.56;102193.44;5139329;27;20019;-79
2023/09/25 09:45:27;;;;;;;1.35;0.85;;;;;;;19.68;54.26;102198.53;5140928;27;20095;-78
2023/09/25 09:47:55;;;;;;;0.10;0.10;;;;;;;19.71;54.10;102195.72;5136530;27;20030;-77
2023/09/25 09:50:26;;;;;;;0.10;0.10;;;;;;;19.79;53.15;102203.50;5131735;27;20400;-77
2023/09/25 09:52:53;;;;;;;1.13;0.30;;;;;;;19.88;52.89;102189.75;5119545;27;20034;-77
2023/09/25 09:55:21;;;;;;;0.13;0.13;;;;;;;19.90;52.46;102190.59;5121536;27;20027;-77
2023/09/25 09:57:49;;;;;;;0.10;0.10;;;;;;;20.07;53.88;102189.06;5133399;27;20078;-77
2023/09/25 10:00:16;;;;;;;0.20;0.20;;;;;;;20.12;53.29;102189.75;5134966;27;20110;-77
2023/09/25 10:02:45;;;;;;;0.08;0.08;;;;;;;20.14;50.96;102190.56;5134616;27;20030;-81
2023/09/25 10:05:14;;;;;;;0.20;0.20;;;;;;;20.31;51.43;102179.13;5134167;27;20549;-77
2023/09/25 10:08:10;;;;;;;1.08;0.95;;;;;;;20.43;51.69;102177.78;5133280;27;20027;-77
2023/09/25 10:10:38;;;;;;;0.10;0.10;;;;;;;20.51;51.13;102184.59;5124142;27;20088;-77
2023/09/25 10:13:11;;;;;;;0.10;0.10;;;;;;;20.61;50.89;102185.09;5128021;27;20031;-77
2023/09/25 10:15:38;;;;;;;0.10;0.10;;;;;;;20.63;50.14;102191.28;5129164;27;20051;-77
2023/09/25 10:18:06;;;;;;;0.30;0.30;;;;;;;20.77;50.82;102188.06;5123501;27;20524;-77
2023/09/25 10:23:18;;;;;;;0.10;0.10;;;;;;;20.98;50.70;102201.56;5109961;27;20392;-78
2023/09/25 10:25:50;;;;;;;0.30;0.30;;;;;;;21.12;51.04;102201.88;5083996;28;20028;-78
2023/09/25 10:28:21;;;;;;;0.10;0.10;;;;;;;21.17;49.97;102191.75;5087008;28;20028;-78
2023/09/25 10:30:48;;;;;;;0.03;0.03;;;;;;;21.31;50.43;102193.84;5089681;28;20024;-78
2023/09/25 10:33:17;;;;;;;0.10;0.10;;;;;;;21.34;49.83;102193.69;5090420;28;20417;-78
2023/09/25 10:35:48;;;;;;;0.10;0.10;;;;;;;21.43;50.07;102191.53;5090170;28;20092;-78
2023/09/25 10:38:21;;;;;;;0.15;0.15;;;;;;;21.53;49.28;102187.47;5090217;28;20120;-78
2023/09/25 10:40:50;;;;;;;0.10;0.10;;;;;;;21.60;49.39;102194.41;5086249;28;20139;-78
2023/09/25 10:43:18;;;;;;;0.52;0.52;;;;;;;21.73;49.49;102200.13;5090450;28;20035;-78
2023/09/25 10:45:44;;;;;;;0.10;0.10;;;;;;;21.85;49.75;102195.97;5075169;28;20024;-78
2023/09/25 10:48:11;;;;;;;0.10;0.10;;;;;;;21.86;48.06;102192.34;5078393;28;20058;-78
2023/09/25 10:50:38;;;;;;;0.30;0.30;;;;;;;21.94;48.09;102191.97;5076188;28;20060;-78
2023/09/25 10:53:06;;;;;;;0.05;0.05;;;;;;;22.02;49.65;102192.50;5071905;28;20024;-78
2023/09/25 10:55:33;;;;;;;0.63;0.63;;;;;;;21.97;48.41;102192.72;5082030;28;20025;-76
2023/09/25 10:58:01;;;;;;;0.85;0.73;;;;;;;22.01;49.10;102197.94;5085339;28;20626;-78
2023/09/25 11:00:28;;;;;;;0.30;0.30;;;;;;;21.94;48.97;102195.56;5080519;28;20037;-79
2023/09/25 11:02:55;;;;;;;0.00;0.00;;;;;;;22.08;49.29;102194.00;5090927;28;20020;-78
2023/09/25 11:05:22;;;;;;;0.17;0.17;;;;;;;22.12;49.71;102193.81;5086298;28;20037;-79
2023/09/25 11:07:49;;;;;;;0.60;0.60;;;;;;;22.24;49.55;102195.06;5083694;28;20035;-79
2023/09/25 11:10:15;;;;;;;0.10;0.10;;;;;;;22.37;49.29;102199.84;5075435;28;20032;-78
2023/09/25 11:12:42;;;;;;;0.10;0.10;;;;;;;22.28;47.88;102195.75;5087177;28;20435;-78
2023/09/25 11:15:26;;;;;;;0.10;0.10;;;;;;;22.50;47.76;102200.16;5073956;28;20123;-78
2023/09/25 11:17:53;;;;;;;0.32;0.32;;;;;;;22.58;48.37;102201.53;5081073;28;20229;-78
2023/09/25 11:20:22;;;;;;;0.10;0.10;;;;;;;22.77;48.75;102197.94;5078481;28;20024;-78
2023/09/25 11:22:49;;;;;;;0.65;0.65;;;;;;;22.76;47.88;102206.97;5075507;28;20125;-76
2023/09/25 11:25:16;;;;;;;0.10;0.10;;;;;;;22.75;47.52;102205.22;5075757;28;20509;-78
2023/09/25 11:27:58;;;;;;;0.52;0.52;;;;;;;22.84;47.25;102198.47;5087097;28;20052;-76